createdAt,value
2018-01-01T00:02:20.895Z,64.40
2018-01-01T00:04:48.532Z,61.77
2018-01-01T00:07:16.088Z,60.10
2018-01-01T00:09:44.434Z,60.47
2018-01-01T00:12:12.212Z,57.57
2018-01-01T00:14:39.783Z,58.23
2018-01-01T00:17:08.217Z,57.50
2018-01-01T00:19:35.790Z,54.43
2018-01-01T00:22:03.384Z,54.63
2018-01-01T00:24:31.030Z,53.53
2018-01-01T00:26:58.564Z,52.57
2018-01-01T00:29:26.215Z,52.47
2018-01-01T00:31:53.856Z,49.73
2018-01-01T00:34:21.766Z,49.73
2018-01-01T00:36:49.371Z,48.07
2018-01-01T00:39:17.696Z,49.47
2018-01-01T00:41:45.286Z,45.93
2018-01-01T00:44:12.896Z,47.87
2018-01-01T00:46:40.674Z,46.77
2018-01-01T00:49:08.249Z,42.20
2018-01-01T00:51:35.860Z,42.67
2018-01-01T00:54:03.654Z,42.67
2018-01-01T00:56:31.255Z,42.10
2018-01-01T00:58:58.837Z,41.30
2018-01-01T01:01:27.191Z,39.13
2018-01-01T01:03:54.890Z,38.77
2018-01-01T01:06:22.679Z,40.93
2018-01-01T01:08:50.279Z,35.33
2018-01-01T01:11:17.880Z,37.63
2018-01-01T01:13:45.455Z,35.20
2018-01-01T01:16:13.012Z,35.97
2018-01-01T01:18:40.690Z,34.17
2018-01-01T01:21:08.337Z,35.90
2018-01-01T01:23:35.999Z,34.07
2018-01-01T01:26:03.595Z,31.70
2018-01-01T01:28:31.434Z,32.07
2018-01-01T01:30:59.028Z,30.50
2018-01-01T01:33:26.667Z,30.53
2018-01-01T01:35:54.257Z,28.10
2018-01-01T01:38:21.815Z,26.63
2018-01-01T01:40:49.387Z,26.83
2018-01-01T01:43:17.730Z,28.00
2018-01-01T01:45:45.320Z,28.50
2018-01-01T01:48:13.138Z,26.43
2018-01-01T01:50:40.708Z,27.63
2018-01-01T01:53:08.282Z,25.10
2018-01-01T01:55:35.921Z,27.10
2018-01-01T01:58:03.506Z,23.23
2018-01-01T02:00:31.113Z,24.17
2018-01-01T02:02:59.845Z,21.73
2018-01-01T02:05:27.431Z,20.40
2018-01-01T02:07:54.999Z,22.83
2018-01-01T02:10:23.473Z,20.10
2018-01-01T02:12:51.813Z,19.97
2018-01-01T02:15:19.397Z,20.43
2018-01-01T02:17:47.032Z,19.40
2018-01-01T02:20:14.594Z,19.97
2018-01-01T02:22:42.173Z,18.30
2018-01-01T02:25:09.777Z,18.80
2018-01-01T02:27:37.361Z,17.83
2018-01-01T02:30:04.989Z,16.43
2018-01-01T02:32:33.549Z,16.50
2018-01-01T02:35:01.129Z,17.70
2018-01-01T02:37:29.508Z,15.50
2018-01-01T02:39:57.852Z,15.40
2018-01-01T02:42:25.457Z,16.77
2018-01-01T02:44:53.812Z,15.30
2018-01-01T02:47:21.382Z,13.37
2018-01-01T02:49:49.714Z,13.43
2018-01-01T02:52:17.326Z,14.27
2018-01-01T02:54:45.676Z,14.87
2018-01-01T02:57:13.283Z,13.70
2018-01-01T02:59:40.830Z,13.10
2018-01-01T03:02:09.192Z,13.10
2018-01-01T03:04:37.525Z,12.10
2018-01-01T03:07:05.117Z,13.50
2018-01-01T03:09:32.734Z,12.30
2018-01-01T03:12:00.279Z,11.47
2018-01-01T03:14:27.862Z,9.97
2018-01-01T03:16:55.506Z,11.60
2018-01-01T03:19:23.208Z,9.73
2018-01-01T03:21:50.922Z,10.60
2018-01-01T03:24:18.508Z,9.57
2018-01-01T03:26:46.097Z,10.20
2018-01-01T03:29:14.468Z,9.40
2018-01-01T03:31:42.020Z,9.67
2018-01-01T03:34:09.586Z,8.37
2018-01-01T03:36:37.229Z,8.87
2018-01-01T03:39:04.776Z,8.80
2018-01-01T03:41:32.361Z,9.40
2018-01-01T03:44:00.025Z,8.93
2018-01-01T03:46:27.588Z,7.93
2018-01-01T03:48:55.260Z,9.07
2018-01-01T03:51:22.867Z,8.63
2018-01-01T03:53:50.436Z,7.57
2018-01-01T03:56:18.009Z,8.27
2018-01-01T03:58:45.574Z,7.47
2018-01-01T04:01:13.186Z,8.00
2018-01-01T04:03:41.526Z,7.23
2018-01-01T04:06:09.116Z,7.10
2018-01-01T04:08:36.729Z,6.17
2018-01-01T04:11:05.442Z,6.37
2018-01-01T04:13:33.028Z,7.07
2018-01-01T04:16:00.576Z,6.03
2018-01-01T04:18:28.162Z,6.07
2018-01-01T04:20:55.744Z,4.70
2018-01-01T04:23:23.460Z,6.67
2018-01-01T04:25:51.081Z,5.63
2018-01-01T04:28:18.630Z,5.50
2018-01-01T04:30:46.206Z,4.67
2018-01-01T04:33:13.788Z,4.63
2018-01-01T04:35:41.390Z,5.60
2018-01-01T04:38:09.528Z,6.03
2018-01-01T04:40:37.090Z,5.23
2018-01-01T04:43:04.664Z,5.00
2018-01-01T04:45:32.986Z,5.60
2018-01-01T04:48:00.588Z,4.77
2018-01-01T04:50:28.924Z,4.83
2018-01-01T04:52:56.500Z,4.10
2018-01-01T04:55:24.090Z,4.93
2018-01-01T04:57:51.680Z,4.50
2018-01-01T05:00:19.234Z,3.77
2018-01-01T05:02:47.036Z,3.23
2018-01-01T05:05:14.608Z,4.23
2018-01-01T05:07:42.360Z,3.90
2018-01-01T05:10:09.920Z,3.80
2018-01-01T05:12:37.526Z,3.70
2018-01-01T05:15:05.864Z,3.80
2018-01-01T05:17:33.418Z,2.90
2018-01-01T05:20:01.000Z,3.03
2018-01-01T05:22:28.618Z,2.90
2018-01-01T05:24:56.163Z,2.77
2018-01-01T05:27:23.827Z,2.43
2018-01-01T05:29:51.415Z,3.20
2018-01-01T05:32:18.964Z,3.07
2018-01-01T05:34:46.521Z,3.37
2018-01-01T05:37:14.180Z,3.23
2018-01-01T05:39:41.775Z,2.60
2018-01-01T05:42:09.358Z,3.03
2018-01-01T05:44:36.960Z,3.10
2018-01-01T05:47:04.549Z,2.23
2018-01-01T05:49:32.116Z,1.90
2018-01-01T05:51:59.865Z,2.53
2018-01-01T05:54:27.445Z,3.13
2018-01-01T05:56:55.270Z,2.20
2018-01-01T05:59:22.840Z,2.10
2018-01-01T06:01:50.472Z,2.40
2018-01-01T06:04:18.061Z,2.07
2018-01-01T06:06:45.607Z,2.00
2018-01-01T06:09:13.223Z,2.03
2018-01-01T06:11:40.774Z,1.70
2018-01-01T06:14:08.366Z,1.53
2018-01-01T06:16:36.731Z,1.60
2018-01-01T06:19:04.315Z,2.10
2018-01-01T06:21:31.924Z,2.43
2018-01-01T06:23:59.508Z,2.10
2018-01-01T06:26:27.970Z,1.53
2018-01-01T06:28:55.615Z,1.77
2018-01-01T06:31:23.174Z,1.30
2018-01-01T06:33:50.750Z,1.23
2018-01-01T06:36:18.315Z,1.60
2018-01-01T06:38:46.887Z,1.27
2018-01-01T06:41:14.515Z,1.73
2018-01-01T06:43:42.270Z,1.43
2018-01-01T06:46:09.857Z,1.30
2018-01-01T06:48:37.438Z,1.90
2018-01-01T06:51:05.021Z,1.30
2018-01-01T06:53:33.417Z,1.50
2018-01-01T06:56:01.773Z,1.13
2018-01-01T06:58:29.349Z,1.63
2018-01-01T07:00:57.722Z,1.17
2018-01-01T07:03:26.050Z,1.07
2018-01-01T07:05:53.639Z,1.00
2018-01-01T07:08:21.239Z,1.03
2018-01-01T07:10:48.793Z,0.80
2018-01-01T07:13:16.361Z,1.07
2018-01-01T07:15:44.101Z,0.90
2018-01-01T07:18:12.474Z,0.90
2018-01-01T07:20:40.037Z,0.63
2018-01-01T07:23:08.449Z,1.20
2018-01-01T07:25:36.037Z,1.40
2018-01-01T07:28:03.874Z,0.73
2018-01-01T07:30:31.420Z,0.70
2018-01-01T07:32:58.967Z,1.53
2018-01-01T07:35:27.335Z,0.77
2018-01-01T07:37:55.764Z,0.90
2018-01-01T07:40:23.325Z,2.73
2018-01-01T07:42:50.905Z,5.17
2018-01-01T07:45:18.557Z,1.57
2018-01-01T07:47:46.111Z,0.83
2018-01-01T07:50:13.695Z,1.43
2018-01-01T07:52:41.429Z,1.07
2018-01-01T07:55:09.001Z,0.77
2018-01-01T07:57:36.639Z,0.80
2018-01-01T08:00:04.237Z,0.90
2018-01-01T08:02:31.799Z,0.53
2018-01-01T08:04:59.377Z,0.60
2018-01-01T08:07:26.947Z,0.70
2018-01-01T08:09:55.495Z,0.60
2018-01-01T08:12:23.075Z,0.90
2018-01-01T08:14:50.706Z,0.70
2018-01-01T08:17:18.359Z,0.60
2018-01-01T08:19:45.923Z,0.67
2018-01-01T08:22:13.683Z,0.83
2018-01-01T08:24:41.275Z,0.80
2018-01-01T08:27:09.643Z,0.70
2018-01-01T08:29:37.209Z,0.60
2018-01-01T08:32:05.588Z,0.50
2018-01-01T08:34:33.144Z,0.77
2018-01-01T08:37:00.724Z,0.50
2018-01-01T08:39:29.245Z,0.73
2018-01-01T08:41:57.653Z,0.50
2018-01-01T08:44:25.253Z,0.50
2018-01-01T08:46:53.595Z,0.70
2018-01-01T08:49:21.169Z,0.60
2018-01-01T08:51:48.783Z,0.90
2018-01-01T08:54:16.405Z,0.50
2018-01-01T08:56:44.769Z,0.50
2018-01-01T08:59:12.336Z,0.60
2018-01-01T09:01:39.925Z,0.60
2018-01-01T09:04:07.483Z,0.50
2018-01-01T09:06:35.889Z,0.53
2018-01-01T09:09:03.531Z,0.53
2018-01-01T09:11:31.238Z,0.50
2018-01-01T09:13:58.863Z,0.60
2018-01-01T09:16:26.453Z,0.70
2018-01-01T09:18:54.085Z,0.60
2018-01-01T09:21:21.701Z,0.70
2018-01-01T09:23:49.455Z,0.50
2018-01-01T09:26:17.027Z,0.60
2018-01-01T09:28:45.449Z,0.50
2018-01-01T09:31:13.047Z,0.60
2018-01-01T09:33:40.667Z,0.40
2018-01-01T09:36:08.345Z,0.50
2018-01-01T09:38:35.925Z,0.70
2018-01-01T09:41:03.812Z,0.70
2018-01-01T09:43:31.602Z,0.50
2018-01-01T09:46:00.105Z,0.60
2018-01-01T09:48:27.687Z,0.60
2018-01-01T09:50:55.415Z,0.60
2018-01-01T09:53:23.790Z,0.60
2018-01-01T09:55:51.405Z,0.67
2018-01-01T09:58:19.155Z,0.70
2018-01-01T10:00:46.711Z,1.00
2018-01-01T10:03:14.289Z,1.37
2018-01-01T10:05:41.893Z,0.63
2018-01-01T10:08:09.489Z,1.20
2018-01-01T10:10:37.895Z,1.33
2018-01-01T10:13:05.489Z,0.50
2018-01-01T10:15:33.825Z,0.97
2018-01-01T10:18:01.462Z,0.60
2018-01-01T10:20:29.012Z,0.60
2018-01-01T10:22:56.603Z,0.70
2018-01-01T10:25:24.155Z,0.40
2018-01-01T10:27:51.745Z,1.23
2018-01-01T10:30:19.414Z,0.90
2018-01-01T10:32:47.747Z,0.60
2018-01-01T10:35:15.310Z,0.60
2018-01-01T10:37:42.919Z,0.70
2018-01-01T10:40:11.267Z,1.03
2018-01-01T10:42:38.861Z,0.67
2018-01-01T10:45:07.352Z,0.50
2018-01-01T10:47:34.957Z,0.50
2018-01-01T10:50:02.508Z,0.60
2018-01-01T10:52:30.117Z,0.60
2018-01-01T10:54:58.453Z,0.57
2018-01-01T10:57:26.102Z,1.07
2018-01-01T10:59:53.709Z,0.50
2018-01-01T11:02:22.066Z,0.50
2018-01-01T11:04:49.642Z,0.40
2018-01-01T11:07:17.251Z,0.53
2018-01-01T11:09:44.890Z,0.83
2018-01-01T11:12:13.291Z,0.97
2018-01-01T11:14:41.657Z,0.50
2018-01-01T11:17:09.285Z,0.50
2018-01-01T11:19:36.963Z,0.50
2018-01-01T11:22:05.335Z,0.50
2018-01-01T11:24:33.923Z,0.40
2018-01-01T11:27:02.295Z,0.50
2018-01-01T11:29:30.927Z,0.70
2018-01-01T11:31:58.574Z,0.63
2018-01-01T11:34:26.180Z,0.70
2018-01-01T11:36:53.765Z,0.87
2018-01-01T11:39:22.138Z,0.50
2018-01-01T11:41:49.839Z,0.60
2018-01-01T11:44:17.413Z,0.50
2018-01-01T11:46:44.979Z,0.40
2018-01-01T11:49:12.565Z,0.50
2018-01-01T11:51:40.198Z,0.40
2018-01-01T11:54:07.765Z,0.30
2018-01-01T11:56:35.435Z,0.40
2018-01-01T11:59:02.997Z,0.60
2018-01-01T12:01:30.601Z,0.40
2018-01-01T12:03:58.177Z,0.67
2018-01-01T12:06:25.784Z,0.40
2018-01-01T12:08:53.386Z,0.50
2018-01-01T12:11:21.030Z,0.40
2018-01-01T12:13:49.367Z,0.40
2018-01-01T12:16:16.929Z,0.60
2018-01-01T12:18:44.529Z,0.40
2018-01-01T12:21:13.041Z,0.50
2018-01-01T12:23:40.654Z,0.40
2018-01-01T12:26:08.238Z,0.40
2018-01-01T12:28:36.652Z,0.40
2018-01-01T12:31:04.533Z,0.40
2018-01-01T12:33:32.104Z,0.57
2018-01-01T12:35:59.765Z,0.40
2018-01-01T12:38:27.397Z,0.40
2018-01-01T12:40:55.016Z,0.40
2018-01-01T12:43:23.393Z,0.40
2018-01-01T12:50:27.030Z,0.40
2018-01-01T12:52:55.529Z,0.50
2018-01-01T12:55:23.085Z,0.50
2018-01-01T12:57:50.633Z,0.40
2018-01-01T13:00:19.985Z,0.50
2018-01-01T13:02:47.555Z,0.40
2018-01-01T13:05:15.136Z,0.30
2018-01-01T13:07:42.725Z,0.40
2018-01-01T13:10:10.393Z,0.50
2018-01-01T13:12:38.004Z,0.40
2018-01-01T13:15:05.580Z,0.40
2018-01-01T13:17:33.158Z,0.50
2018-01-01T13:20:01.520Z,0.40
2018-01-01T13:22:29.094Z,0.50
2018-01-01T13:24:57.446Z,0.50
2018-01-01T13:27:25.038Z,0.70
2018-01-01T13:29:53.490Z,0.40
2018-01-01T13:32:21.409Z,0.40
2018-01-01T13:34:49.046Z,0.40
2018-01-01T13:37:17.386Z,0.40
2018-01-01T13:39:44.938Z,0.40
2018-01-01T13:42:12.592Z,0.47
2018-01-01T13:44:40.192Z,0.37
2018-01-01T13:47:08.665Z,0.50
2018-01-01T13:49:36.226Z,0.40
2018-01-01T13:52:03.862Z,0.40
2018-01-01T13:54:31.602Z,0.53
2018-01-01T13:56:59.382Z,0.40
2018-01-01T13:59:26.989Z,0.50
2018-01-01T14:01:55.440Z,0.50
2018-01-01T14:04:23.123Z,0.40
2018-01-01T14:06:51.466Z,0.40
2018-01-01T14:09:19.052Z,0.30
2018-01-01T14:11:46.666Z,0.40
2018-01-01T14:14:14.228Z,0.50
2018-01-01T14:16:42.076Z,0.30
2018-01-01T14:19:09.678Z,0.30
2018-01-01T14:21:37.336Z,0.30
2018-01-01T14:24:04.951Z,0.50
2018-01-01T14:26:32.566Z,0.30
2018-01-01T14:29:00.138Z,0.30
2018-01-01T14:31:27.748Z,0.40
2018-01-01T14:33:55.344Z,0.40
2018-01-01T14:36:22.964Z,0.40
2018-01-01T14:38:50.535Z,0.37
2018-01-01T14:41:18.096Z,0.30
2018-01-01T14:43:45.716Z,0.40
2018-01-01T14:46:14.036Z,0.30
2018-01-01T14:48:41.642Z,0.30
2018-01-01T14:51:09.283Z,0.30
2018-01-01T14:53:36.841Z,0.40
2018-01-01T14:56:04.451Z,0.40
2018-01-01T14:58:32.804Z,0.30
2018-01-01T15:01:00.375Z,0.30
2018-01-01T15:03:28.779Z,0.30
2018-01-01T15:05:56.383Z,0.43
2018-01-01T15:08:24.013Z,0.40
2018-01-01T15:10:51.581Z,0.40
2018-01-01T15:13:19.146Z,0.40
2018-01-01T15:15:46.795Z,0.50
2018-01-01T15:18:14.381Z,0.50
2018-01-01T15:20:41.981Z,0.40
2018-01-01T15:23:10.323Z,0.50
2018-01-01T15:25:38.035Z,0.50
2018-01-01T15:28:05.694Z,0.40
2018-01-01T15:30:33.301Z,0.40
2018-01-01T15:33:01.533Z,0.50
2018-01-01T15:35:29.179Z,0.50
2018-01-01T15:37:57.705Z,0.40
2018-01-01T15:40:25.271Z,0.50
2018-01-01T15:42:52.815Z,0.53
2018-01-01T15:45:20.433Z,0.50
2018-01-01T15:47:48.787Z,0.40
2018-01-01T15:50:16.369Z,0.33
2018-01-01T15:52:44.059Z,0.40
2018-01-01T15:55:11.701Z,0.60
2018-01-01T15:57:40.075Z,0.40
2018-01-01T16:00:07.739Z,0.33
2018-01-01T16:02:36.102Z,0.40
2018-01-01T16:05:03.781Z,0.93
2018-01-01T16:07:32.159Z,0.47
2018-01-01T16:10:00.499Z,0.40
2018-01-01T16:12:28.059Z,0.40
2018-01-01T16:14:55.695Z,0.50
2018-01-01T16:17:23.689Z,0.50
2018-01-01T16:19:51.259Z,0.50
2018-01-01T16:22:18.944Z,0.50
2018-01-01T16:24:46.639Z,0.50
2018-01-01T16:27:14.232Z,0.50
2018-01-01T16:29:41.855Z,0.60
2018-01-01T16:32:09.447Z,0.50
2018-01-01T16:34:37.189Z,0.80
2018-01-01T16:37:04.766Z,0.70
2018-01-01T16:39:32.443Z,1.07
2018-01-01T16:42:00.089Z,0.80
2018-01-01T16:44:27.706Z,0.40
2018-01-01T16:46:56.041Z,0.40
2018-01-01T16:49:23.643Z,0.70
2018-01-01T16:51:51.980Z,1.00
2018-01-01T16:54:19.587Z,0.77
2018-01-01T16:56:47.980Z,0.50
2018-01-01T16:59:15.617Z,0.80
2018-01-01T17:01:44.467Z,0.80
2018-01-01T17:04:12.087Z,0.53
2018-01-01T17:06:39.683Z,0.53
2018-01-01T17:09:07.333Z,0.50
2018-01-01T17:11:34.972Z,0.60
2018-01-01T17:14:02.599Z,0.47
2018-01-01T17:16:30.158Z,0.40
2018-01-01T17:18:57.761Z,0.50
2018-01-01T17:21:25.631Z,0.60
2018-01-01T17:23:53.254Z,1.13
2018-01-01T17:26:21.749Z,0.50
2018-01-01T17:28:49.399Z,0.60
2018-01-01T17:31:17.785Z,0.80
2018-01-01T17:33:46.534Z,0.77
2018-01-01T17:36:14.123Z,0.57
2018-01-01T17:38:42.528Z,0.90
2018-01-01T17:41:10.111Z,0.93
2018-01-01T17:43:37.802Z,1.40
2018-01-01T17:46:05.407Z,0.80
2018-01-01T17:48:34.758Z,1.17
2018-01-01T17:51:02.354Z,0.70
2018-01-01T17:53:30.739Z,1.30
2018-01-01T17:55:59.129Z,0.80
2018-01-01T17:58:26.755Z,1.07
2018-01-01T18:00:54.463Z,1.27
2018-01-01T18:03:22.116Z,0.50
2018-01-01T18:05:49.715Z,0.80
2018-01-01T18:08:17.344Z,1.00
2018-01-01T18:10:44.987Z,1.20
2018-01-01T18:13:13.400Z,4.90
2018-01-01T18:15:41.027Z,4.87
2018-01-01T18:18:09.448Z,3.63
2018-01-01T18:20:37.030Z,3.57
2018-01-01T18:23:05.602Z,2.80
2018-01-01T18:25:33.238Z,2.57
2018-01-01T18:28:00.817Z,3.63
2018-01-01T18:30:28.456Z,2.40
2018-01-01T18:32:56.102Z,2.37
2018-01-01T18:35:23.898Z,2.87
2018-01-01T18:37:51.733Z,1.83
2018-01-01T18:40:19.605Z,2.30
2018-01-01T18:42:47.250Z,1.13
2018-01-01T18:45:15.627Z,1.60
2018-01-01T18:47:44.028Z,2.47
2018-01-01T18:50:12.058Z,2.27
2018-01-01T18:52:39.708Z,1.10
2018-01-01T18:55:07.430Z,2.27
2018-01-01T18:57:35.052Z,1.47
2018-01-01T19:00:03.618Z,1.50
2018-01-01T19:02:31.210Z,1.70
2018-01-01T19:04:59.575Z,1.33
2018-01-01T19:07:28.076Z,1.60
2018-01-01T19:09:55.724Z,1.17
2018-01-01T19:12:24.220Z,2.03
2018-01-01T19:14:52.613Z,1.80
2018-01-01T19:17:20.246Z,1.93
2018-01-01T19:19:48.632Z,1.33
2018-01-01T19:22:16.421Z,1.10
2018-01-01T19:24:46.542Z,0.87
2018-01-01T19:27:14.148Z,1.30
2018-01-01T19:29:42.712Z,1.00
2018-01-01T19:32:11.378Z,1.10
2018-01-01T19:34:39.099Z,1.30
2018-01-01T19:37:07.524Z,2.00
2018-01-01T19:39:35.141Z,1.13
2018-01-01T19:42:03.554Z,1.10
2018-01-01T19:44:31.394Z,1.00
2018-01-01T19:47:00.006Z,0.70
2018-01-01T19:49:27.840Z,1.13
2018-01-01T19:51:56.452Z,0.93
2018-01-01T19:54:24.044Z,1.17
2018-01-01T19:56:51.712Z,0.93
2018-01-01T19:59:19.306Z,1.63
2018-01-01T20:01:47.698Z,1.77
2018-01-01T20:04:16.209Z,1.57
2018-01-01T20:06:43.960Z,1.20
2018-01-01T20:09:11.608Z,0.87
2018-01-01T20:11:39.208Z,1.47
2018-01-01T20:14:06.846Z,1.43
2018-01-01T20:16:34.477Z,1.60
2018-01-01T20:19:02.886Z,1.10
2018-01-01T20:21:30.607Z,1.17
2018-01-01T20:23:58.238Z,1.60
2018-01-01T20:26:26.154Z,0.90
2018-01-01T20:28:54.569Z,1.00
2018-01-01T20:31:22.196Z,1.00
2018-01-01T20:33:50.704Z,0.93
2018-01-01T20:36:18.333Z,0.80
2018-01-01T20:38:46.725Z,0.73
2018-01-01T20:41:14.473Z,0.87
2018-01-01T20:43:42.913Z,0.73
2018-01-01T20:46:10.620Z,0.50
2018-01-01T20:48:39.025Z,0.80
2018-01-01T20:51:06.706Z,0.80
2018-01-01T20:53:34.331Z,1.07
2018-01-01T20:56:02.002Z,0.60
2018-01-01T20:58:29.670Z,0.70
2018-01-01T21:00:57.342Z,0.97
2018-01-01T21:03:24.982Z,1.10
2018-01-01T21:05:52.604Z,0.57
2018-01-01T21:08:21.098Z,1.03
2018-01-01T21:10:49.504Z,0.70
2018-01-01T21:13:17.182Z,0.90
2018-01-01T21:15:44.821Z,0.60
2018-01-01T21:18:12.398Z,1.03
2018-01-01T21:20:40.048Z,0.60
2018-01-01T21:23:07.654Z,0.50
2018-01-01T21:25:35.286Z,0.60
2018-01-01T21:28:02.857Z,0.60
2018-01-01T21:30:30.484Z,0.70
2018-01-01T21:32:58.851Z,0.90
2018-01-01T21:35:26.594Z,0.90
2018-01-01T21:37:54.170Z,1.10
2018-01-01T21:40:22.570Z,0.50
2018-01-01T21:42:50.145Z,0.40
2018-01-01T21:45:17.766Z,0.80
2018-01-01T21:47:45.333Z,0.60
2018-01-01T21:50:13.750Z,0.60
2018-01-01T21:52:41.346Z,0.60
2018-01-01T21:55:08.924Z,0.50
2018-01-01T21:57:36.675Z,0.50
2018-01-01T22:00:04.280Z,0.80
2018-01-01T22:02:32.061Z,0.80
2018-01-01T22:04:59.688Z,0.50
2018-01-01T22:07:28.068Z,0.50
2018-01-01T22:09:56.407Z,0.57
2018-01-01T22:12:23.953Z,0.87
2018-01-01T22:14:51.552Z,0.60
2018-01-01T22:17:19.148Z,0.40
2018-01-01T22:19:46.785Z,0.50
2018-01-01T22:22:14.545Z,0.40
2018-01-01T22:24:42.917Z,0.80
2018-01-01T22:27:11.115Z,0.67
2018-01-01T22:29:39.630Z,0.63
2018-01-01T22:32:07.236Z,0.50
2018-01-01T22:34:35.610Z,0.50
2018-01-01T22:37:03.187Z,0.63
2018-01-01T22:39:31.540Z,0.50
2018-01-01T22:41:59.153Z,0.50
2018-01-01T22:44:26.774Z,0.40
2018-01-01T22:46:55.191Z,0.50
2018-01-01T22:49:22.787Z,0.43
2018-01-01T22:51:50.461Z,0.40
2018-01-01T22:54:18.025Z,0.50
2018-01-01T22:56:45.577Z,0.53
2018-01-01T22:59:13.194Z,0.60
2018-01-01T23:01:40.785Z,0.50
2018-01-01T23:04:08.449Z,0.60
2018-01-01T23:06:36.029Z,0.80
2018-01-01T23:09:03.587Z,0.40
2018-01-01T23:11:31.164Z,0.37
2018-01-01T23:13:59.511Z,0.50
2018-01-01T23:16:27.066Z,0.50
2018-01-01T23:18:54.656Z,0.40
2018-01-01T23:21:23.083Z,0.40
2018-01-01T23:23:50.709Z,0.30
2018-01-01T23:26:18.287Z,0.40
2018-01-01T23:28:45.885Z,0.80
2018-01-01T23:31:13.503Z,0.40
2018-01-01T23:33:41.145Z,0.50
2018-01-01T23:36:09.489Z,0.40
2018-01-01T23:38:37.085Z,0.40
2018-01-01T23:41:05.449Z,0.40
2018-01-01T23:43:33.001Z,0.53
2018-01-01T23:46:00.617Z,0.40
2018-01-01T23:48:28.204Z,0.30
2018-01-01T23:50:55.839Z,0.40
2018-01-01T23:53:23.468Z,0.30
2018-01-01T23:55:51.851Z,0.50
2018-01-01T23:58:20.165Z,0.40
